Time;durP1;ratioP1;P1;durP2;ratioP2;P2;SDS_P1;SDS_P2;PMS_P1;PMS_P2;Temp;Humidity;BMP_temperature;BMP_pressure;BME280_temperature;BME280_humidity;BME280_pressure;Samples;Min_cycle;Max_cycle;Signal;HPM_P1;HPM_P2
2023/07/15 00:01:14;;;;;;;15.38;7.88;;;;;;;22.37;100.00;97662.50;5046484;28;20438;-75
2023/07/15 00:03:39;;;;;;;14.20;8.63;;;;;;;22.32;100.00;97659.41;5055495;28;20403;-75
2023/07/15 00:06:08;;;;;;;15.40;7.93;;;;;;;22.23;100.00;97644.91;5060628;28;20039;-76
2023/07/15 00:08:33;;;;;;;14.40;8.38;;;;;;;22.30;100.00;97653.28;5058796;28;20482;-76
2023/07/15 00:11:01;;;;;;;11.52;7.80;;;;;;;22.11;100.00;97648.97;5060732;28;20104;-75
2023/07/15 00:13:27;;;;;;;11.88;8.15;;;;;;;22.12;100.00;97650.66;5045503;28;20056;-75
2023/07/15 00:15:57;;;;;;;16.33;8.23;;;;;;;22.17;100.00;97655.63;5056210;28;20494;-76
2023/07/15 00:18:23;;;;;;;18.55;8.32;;;;;;;22.13;100.00;97661.41;5037495;28;20035;-76
2023/07/15 00:20:49;;;;;;;15.30;8.90;;;;;;;22.12;100.00;97670.56;5059124;28;20043;-76
2023/07/15 00:23:21;;;;;;;18.08;9.45;;;;;;;22.09;100.00;97670.91;5064852;28;20086;-76
2023/07/15 00:25:47;;;;;;;12.80;8.85;;;;;;;22.07;100.00;97672.94;5057902;28;20063;-76
2023/07/15 00:28:13;;;;;;;19.42;9.77;;;;;;;22.07;100.00;97666.66;5037150;28;20473;-75
2023/07/15 00:30:38;;;;;;;19.35;10.18;;;;;;;22.02;100.00;97661.72;5057783;28;20060;-75
2023/07/15 00:33:06;;;;;;;16.38;9.90;;;;;;;21.99;100.00;97667.47;5055211;28;20035;-75
2023/07/15 00:35:32;;;;;;;25.08;11.10;;;;;;;21.99;100.00;97670.19;5044083;28;20055;-75
2023/07/15 00:37:58;;;;;;;14.77;9.70;;;;;;;21.99;100.00;97670.19;5059223;28;20029;-75
2023/07/15 00:40:25;;;;;;;17.00;10.30;;;;;;;21.98;100.00;97679.38;5039792;28;20025;-75
2023/07/15 00:43:29;;;;;;;19.55;10.00;;;;;;;21.95;100.00;97678.84;5035307;28;20036;-75
2023/07/15 00:46:26;;;;;;;17.88;9.70;;;;;;;21.81;100.00;97672.09;5058809;28;20486;-76
2023/07/15 00:49:16;;;;;;;16.67;10.27;;;;;;;21.87;100.00;97685.06;5044037;28;20037;-77
2023/07/15 00:51:45;;;;;;;15.93;9.13;;;;;;;21.89;100.00;97687.66;5058728;28;20025;-76
2023/07/15 00:54:13;;;;;;;16.88;8.93;;;;;;;21.84;100.00;97682.66;5043629;28;20035;-76
2023/07/15 00:56:40;;;;;;;14.43;9.15;;;;;;;21.82;100.00;97686.56;5058785;28;20031;-76
2023/07/15 00:59:06;;;;;;;12.93;9.10;;;;;;;21.78;100.00;97683.31;5040068;28;20109;-76
2023/07/15 01:01:34;;;;;;;17.98;10.30;;;;;;;21.70;100.00;97685.13;5044077;28;20035;-76
2023/07/15 01:03:59;;;;;;;17.38;9.35;;;;;;;21.63;100.00;97690.38;5038360;28;20396;-76
2023/07/15 01:06:25;;;;;;;14.77;9.20;;;;;;;21.64;100.00;97700.25;5063575;28;20043;-76
2023/07/15 01:08:50;;;;;;;13.85;8.95;;;;;;;21.59;100.00;97705.34;5065406;28;20021;-76
2023/07/15 01:11:16;;;;;;;18.23;8.02;;;;;;;21.53;100.00;97704.09;5058289;28;20039;-76
2023/07/15 01:13:41;;;;;;;16.10;8.85;;;;;;;21.53;100.00;97700.53;5064079;28;20025;-76
2023/07/15 01:16:07;;;;;;;11.32;8.90;;;;;;;21.53;100.00;97703.25;5062510;28;20020;-76
2023/07/15 01:18:32;;;;;;;16.25;8.70;;;;;;;21.46;100.00;97704.88;5061288;28;20473;-75
2023/07/15 01:20:59;;;;;;;16.30;8.77;;;;;;;21.47;100.00;97703.88;5060976;28;20029;-76
2023/07/15 01:23:26;;;;;;;12.73;8.88;;;;;;;21.48;100.00;97703.72;5062713;28;20021;-77
2023/07/15 01:25:51;;;;;;;14.20;8.27;;;;;;;21.50;100.00;97695.41;5063238;28;20021;-77
2023/07/15 01:28:17;;;;;;;16.13;8.52;;;;;;;21.47;100.00;97698.44;5045492;28;20032;-77
2023/07/15 01:30:42;;;;;;;12.32;8.00;;;;;;;21.47;100.00;97699.28;5046188;28;20495;-77
2023/07/15 01:33:08;;;;;;;11.20;8.07;;;;;;;21.49;100.00;97699.13;5064961;28;20025;-76
2023/07/15 01:35:33;;;;;;;17.63;8.90;;;;;;;21.33;100.00;97688.13;5060278;28;20037;-77
2023/07/15 01:37:59;;;;;;;14.77;8.65;;;;;;;21.37;100.00;97695.81;5061230;28;20060;-76
2023/07/15 01:40:24;;;;;;;16.85;8.70;;;;;;;21.33;100.00;97688.13;5068253;28;20029;-76
2023/07/15 01:42:50;;;;;;;14.50;8.05;;;;;;;21.32;100.00;97684.53;5066968;28;20020;-77
2023/07/15 01:45:15;;;;;;;15.07;7.80;;;;;;;21.31;100.00;97692.88;5061410;28;20025;-77
2023/07/15 01:47:41;;;;;;;12.52;8.82;;;;;;;21.26;100.00;97697.91;5045816;28;20062;-77
2023/07/15 01:50:08;;;;;;;18.02;8.70;;;;;;;21.31;100.00;97695.59;5044162;28;20102;-77
2023/07/15 01:52:34;;;;;;;16.63;8.90;;;;;;;21.38;100.00;97692.06;5066522;28;20032;-76
2023/07/15 01:54:59;;;;;;;15.93;9.38;;;;;;;21.39;100.00;97695.66;5063992;28;20087;-76
2023/07/15 01:57:30;;;;;;;16.08;8.70;;;;;;;21.37;100.00;97694.97;5062298;28;20028;-76
2023/07/15 01:59:58;;;;;;;12.85;8.70;;;;;;;21.31;100.00;97692.88;5059252;28;20032;-75
2023/07/15 02:02:24;;;;;;;20.30;9.20;;;;;;;21.37;100.00;97694.97;5062890;28;20447;-76
2023/07/15 02:04:50;;;;;;;15.40;9.38;;;;;;;21.34;100.00;97698.00;5051641;28;20028;-77
2023/07/15 02:07:16;;;;;;;13.45;8.88;;;;;;;21.31;100.00;97696.44;5059446;28;20099;-74
2023/07/15 02:09:41;;;;;;;14.13;8.43;;;;;;;21.30;100.00;97696.59;5056592;28;20086;-76
2023/07/15 02:12:07;;;;;;;13.80;8.63;;;;;;;21.20;100.00;97699.41;5062864;28;20427;-75
2023/07/15 02:14:33;;;;;;;17.67;9.60;;;;;;;21.10;100.00;97704.09;5058441;28;20036;-75
2023/07/15 02:16:58;;;;;;;17.15;9.15;;;;;;;21.02;100.00;97699.41;5064345;28;20062;-75
2023/07/15 02:19:24;;;;;;;17.98;9.40;;;;;;;21.01;100.00;97716.72;5059448;28;20023;-75
2023/07/15 02:21:49;;;;;;;20.27;9.93;;;;;;;21.03;100.00;97717.44;5060038;28;20016;-75
2023/07/15 02:24:15;;;;;;;19.40;9.80;;;;;;;21.01;100.00;97722.16;5042752;28;20709;-76
2023/07/15 02:26:40;;;;;;;18.38;9.95;;;;;;;21.05;100.00;97722.69;5063247;28;20119;-76
2023/07/15 02:29:06;;;;;;;18.77;10.60;;;;;;;20.98;100.00;97721.59;5058089;28;20104;-76
2023/07/15 02:31:31;;;;;;;20.42;10.80;;;;;;;20.93;100.00;97724.81;5061365;28;20029;-76
2023/07/15 02:33:57;;;;;;;16.27;10.40;;;;;;;20.95;100.00;97721.91;5042157;28;20020;-76
2023/07/15 02:36:22;;;;;;;18.70;10.88;;;;;;;20.88;100.00;97715.41;5062020;28;20044;-76
2023/07/15 02:38:48;;;;;;;19.45;10.32;;;;;;;20.94;100.00;97723.81;5059610;28;20036;-79
2023/07/15 02:41:14;;;;;;;21.83;11.05;;;;;;;20.97;100.00;97714.47;5057523;28;20506;-77
2023/07/15 02:43:39;;;;;;;22.85;10.38;;;;;;;21.01;100.00;97721.31;5059503;28;20024;-75
2023/07/15 02:46:05;;;;;;;25.50;10.07;;;;;;;21.03;100.00;97730.19;5060722;28;20074;-75
2023/07/15 02:48:31;;;;;;;16.50;9.52;;;;;;;21.04;100.00;97723.72;5055000;28;20044;-75
2023/07/15 02:50:56;;;;;;;15.20;9.55;;;;;;;21.07;100.00;97724.25;5054394;28;20029;-75
2023/07/15 02:53:22;;;;;;;20.45;9.73;;;;;;;21.10;100.00;97728.59;5041707;28;20105;-75
2023/07/15 02:55:50;;;;;;;15.07;9.35;;;;;;;21.10;100.00;97725.00;5053495;28;20028;-75
2023/07/15 02:58:17;;;;;;;17.08;10.00;;;;;;;21.11;100.00;97718.53;5065247;28;20116;-77
2023/07/15 03:00:43;;;;;;;18.48;10.20;;;;;;;21.15;100.00;97728.09;5049838;28;20033;-78
2023/07/15 03:03:09;;;;;;;15.30;9.27;;;;;;;21.17;100.00;97724.22;5063564;28;20024;-78
2023/07/15 03:05:56;;;;;;;17.92;8.85;;;;;;;21.24;100.00;97719.00;5054272;28;20032;-78
2023/07/15 03:08:22;;;;;;;15.80;9.15;;;;;;;21.27;100.00;97721.41;5053445;28;20489;-78
2023/07/15 03:10:49;;;;;;;17.35;8.93;;;;;;;21.30;100.00;97723.81;5059491;28;20106;-74
2023/07/15 03:13:15;;;;;;;14.88;8.57;;;;;;;21.33;100.00;97716.19;5062396;28;20553;-74
2023/07/15 03:15:42;;;;;;;18.85;9.20;;;;;;;21.37;100.00;97719.44;5059210;28;20048;-76
2023/07/15 03:18:07;;;;;;;19.73;9.50;;;;;;;21.33;100.00;97709.88;5058080;28;20017;-75
2023/07/15 03:20:33;;;;;;;15.73;8.48;;;;;;;21.40;100.00;97710.97;5037143;28;20024;-76
2023/07/15 03:22:58;;;;;;;14.57;8.25;;;;;;;21.40;100.00;97717.28;5047912;28;20025;-75
2023/07/15 03:25:24;;;;;;;15.95;9.30;;;;;;;21.48;100.00;97714.59;5042989;28;20108;-75
2023/07/15 03:27:51;;;;;;;20.67;9.25;;;;;;;21.52;100.00;97709.69;5054618;28;20455;-75
2023/07/15 03:30:17;;;;;;;18.38;9.45;;;;;;;21.55;100.00;97717.56;5056487;28;20049;-76
2023/07/15 03:32:44;;;;;;;22.17;8.63;;;;;;;21.51;100.00;97711.56;5041372;28;20029;-76
2023/07/15 03:35:09;;;;;;;18.15;9.15;;;;;;;21.46;100.00;97718.50;5061624;28;20020;-75
2023/07/15 03:37:36;;;;;;;16.40;9.25;;;;;;;21.48;100.00;97720.03;5056916;28;20036;-76
2023/07/15 03:40:08;;;;;;;21.48;8.98;;;;;;;21.47;100.00;97725.66;5061068;28;20498;-76
2023/07/15 03:42:38;;;;;;;17.77;9.80;;;;;;;21.53;100.00;97723.13;5058511;28;20027;-76
2023/07/15 03:45:05;;;;;;;15.55;8.73;;;;;;;21.38;100.00;97723.91;5036934;28;20087;-76
2023/07/15 03:47:31;;;;;;;12.88;8.10;;;;;;;21.42;100.00;97720.69;5057705;28;20484;-75
2023/07/15 03:49:56;;;;;;;16.25;8.13;;;;;;;21.49;100.00;97720.91;5058715;28;20107;-76
2023/07/15 03:52:22;;;;;;;25.25;8.27;;;;;;;21.59;100.00;97719.78;5044270;28;20099;-76
2023/07/15 03:54:47;;;;;;;17.05;8.30;;;;;;;21.55;100.00;97717.56;5060868;28;20024;-76
2023/07/15 03:57:13;;;;;;;20.90;8.77;;;;;;;21.51;100.00;97711.56;5065031;28;20033;-76
2023/07/15 03:59:39;;;;;;;21.15;8.35;;;;;;;21.56;100.00;97717.38;5056717;28;20455;-75
2023/07/15 04:02:04;;;;;;;15.02;8.20;;;;;;;21.48;100.00;97713.75;5060625;28;20446;-76
2023/07/15 04:04:30;;;;;;;20.52;9.30;;;;;;;21.39;100.00;97711.97;5057573;28;20060;-76
2023/07/15 04:06:57;;;;;;;17.17;8.02;;;;;;;21.27;100.00;97714.09;5056035;28;20115;-75
2023/07/15 04:09:23;;;;;;;19.10;9.45;;;;;;;21.39;100.00;97728.31;5061906;28;20036;-77
2023/07/15 04:11:50;;;;;;;14.77;8.63;;;;;;;21.42;100.00;97728.00;5048405;28;20021;-76
2023/07/15 04:14:16;;;;;;;14.10;8.68;;;;;;;21.53;100.00;97733.19;5056050;28;20036;-76
2023/07/15 04:16:42;;;;;;;16.60;10.45;;;;;;;21.68;100.00;97731.59;5048585;28;20033;-76
2023/07/15 04:19:08;;;;;;;20.50;8.68;;;;;;;21.73;100.00;97733.84;5045528;28;20059;-76
2023/07/15 04:21:33;;;;;;;20.13;9.40;;;;;;;21.79;100.00;97730.47;5042894;28;20033;-75
2023/07/15 04:23:59;;;;;;;13.20;8.23;;;;;;;21.90;100.00;97733.81;5045438;28;20398;-75
2023/07/15 04:26:26;;;;;;;16.27;8.77;;;;;;;22.03;100.00;97744.28;5063865;28;20021;-76
2023/07/15 04:28:52;;;;;;;19.30;8.85;;;;;;;22.12;100.00;97735.97;5057816;28;20483;-76
2023/07/15 04:31:18;;;;;;;21.40;10.02;;;;;;;22.13;100.00;97731.38;5052338;28;20072;-76
2023/07/15 04:33:49;;;;;;;17.73;9.63;;;;;;;22.34;100.00;97739.16;5042472;28;20492;-76
2023/07/15 04:36:15;;;;;;;19.35;9.50;;;;;;;22.48;100.00;97735.81;5039643;28;20029;-76
2023/07/15 04:38:41;;;;;;;21.35;9.02;;;;;;;22.60;100.00;97738.09;5060530;28;20499;-75
2023/07/15 04:41:06;;;;;;;17.58;8.25;;;;;;;22.77;100.00;97740.88;5068537;28;20100;-74
2023/07/15 04:43:33;;;;;;;15.85;8.60;;;;;;;22.82;100.00;97733.91;5058382;28;20025;-75
2023/07/15 04:45:59;;;;;;;16.20;8.77;;;;;;;22.94;100.00;97737.19;5061007;28;20024;-75
2023/07/15 04:48:25;;;;;;;12.57;8.50;;;;;;;23.07;100.00;97738.38;5060582;28;20082;-76
2023/07/15 04:50:51;;;;;;;14.20;8.75;;;;;;;23.34;100.00;97739.97;5061637;28;20029;-76
2023/07/15 04:53:17;;;;;;;25.23;8.75;;;;;;;23.52;100.00;97734.38;5066000;28;20020;-75
2023/07/15 04:55:43;;;;;;;23.23;9.75;;;;;;;23.43;100.00;97732.66;5059635;28;20021;-76
2023/07/15 04:58:09;;;;;;;19.15;9.65;;;;;;;23.44;100.00;97737.94;5043929;28;20024;-76
2023/07/15 05:00:36;;;;;;;16.42;8.90;;;;;;;23.63;100.00;97734.00;5049629;28;20021;-76
2023/07/15 05:03:04;;;;;;;18.58;8.35;;;;;;;23.71;100.00;97731.28;5059505;28;20025;-75
2023/07/15 05:05:30;;;;;;;17.85;8.63;;;;;;;24.06;100.00;97740.94;5061941;28;20028;-75
2023/07/15 05:08:00;;;;;;;14.95;9.35;;;;;;;24.98;100.00;97732.91;5061516;28;20093;-76
2023/07/15 05:10:25;;;;;;;20.60;11.88;;;;;;;25.86;100.00;97727.81;5062630;28;20547;-78
2023/07/15 05:12:51;;;;;;;19.27;9.57;;;;;;;25.73;100.00;97731.19;5046582;28;20104;-76
2023/07/15 05:15:16;;;;;;;15.98;8.07;;;;;;;25.73;100.00;97733.06;5064367;28;20049;-79
2023/07/15 05:17:44;;;;;;;16.98;8.55;;;;;;;26.64;100.00;97716.31;5064036;28;20035;-84
2023/07/15 05:20:10;;;;;;;18.45;8.65;;;;;;;27.13;100.00;97716.53;5060789;28;20107;-88
2023/07/15 05:22:35;;;;;;;15.88;7.90;;;;;;;27.33;100.00;97707.44;5051754;28;20063;-83
2023/07/15 05:25:01;;;;;;;15.40;9.18;;;;;;;27.75;100.00;97712.06;5046149;28;20079;-85
2023/07/15 05:27:27;;;;;;;14.15;7.25;;;;;;;28.30;100.00;97707.66;5045169;28;20029;-86
2023/07/15 05:29:52;;;;;;;14.98;8.38;;;;;;;28.96;100.00;97708.84;5041464;28;20037;-85
2023/07/15 05:32:18;;;;;;;14.93;7.20;;;;;;;29.16;100.00;97719.94;5042788;28;20384;-84
2023/07/15 05:34:43;;;;;;;16.25;7.40;;;;;;;29.79;100.00;97713.88;5048649;28;20033;-84
2023/07/15 05:37:12;;;;;;;10.73;7.50;;;;;;;30.56;100.00;97711.31;5046239;28;20123;-87
2023/07/15 05:39:37;;;;;;;28.17;12.68;;;;;;;30.56;100.00;97716.81;5060475;28;20036;-85
2023/07/15 05:42:03;;;;;;;14.80;8.13;;;;;;;30.42;100.00;97715.19;5045475;28;20029;-78
2023/07/15 05:44:28;;;;;;;11.48;7.25;;;;;;;30.34;100.00;97718.13;5058384;28;20294;-78
2023/07/15 05:46:54;;;;;;;12.05;7.60;;;;;;;30.22;100.00;97735.53;5065594;28;20028;-80
2023/07/15 05:49:19;;;;;;;16.45;7.85;;;;;;;31.21;100.00;97719.56;5062735;28;20114;-82
2023/07/15 05:51:45;;;;;;;16.52;7.10;;;;;;;31.95;100.00;97722.47;5046357;28;20033;-81
2023/07/15 05:54:10;;;;;;;15.95;7.40;;;;;;;32.44;96.49;97728.00;5058704;28;20025;-80
2023/07/15 05:56:36;;;;;;;11.55;7.05;;;;;;;32.49;92.66;97725.38;5058150;28;20024;-81
2023/07/15 05:59:01;;;;;;;12.90;6.85;;;;;;;32.49;93.83;97722.63;5061743;28;20031;-83
2023/07/15 06:01:27;;;;;;;12.65;7.35;;;;;;;33.19;86.62;97729.50;5063620;28;20028;-84
2023/07/15 06:03:52;;;;;;;10.45;7.13;;;;;;;32.93;86.96;97728.97;5040408;28;20020;-81
2023/07/15 06:06:18;;;;;;;17.85;7.82;;;;;;;33.31;86.54;97728.72;5060547;28;20079;-82
2023/07/15 06:08:45;;;;;;;16.65;10.55;;;;;;;33.44;86.87;97731.34;5042645;28;20025;-83
2023/07/15 06:11:11;;;;;;;17.48;7.88;;;;;;;34.39;81.38;97721.06;5057700;28;20082;-82
2023/07/15 06:13:36;;;;;;;11.35;7.57;;;;;;;34.75;75.97;97716.09;5056650;28;20021;-81
2023/07/15 06:16:02;;;;;;;13.88;7.20;;;;;;;33.97;79.66;97721.09;5061604;28;20025;-82
2023/07/15 06:18:28;;;;;;;8.60;6.72;;;;;;;34.21;80.12;97725.63;5059288;28;20025;-80
2023/07/15 06:20:53;;;;;;;15.98;7.70;;;;;;;34.69;74.70;97710.69;5061622;28;20407;-82
2023/07/15 06:23:19;;;;;;;10.23;6.35;;;;;;;34.20;74.42;97709.22;5044073;28;20447;-80
2023/07/15 06:25:44;;;;;;;18.85;7.78;;;;;;;33.96;77.22;97713.88;5060448;28;20439;-80
2023/07/15 06:28:10;;;;;;;55.72;13.00;;;;;;;33.99;78.42;97712.56;5048729;28;20025;-81
2023/07/15 06:30:35;;;;;;;54.47;9.25;;;;;;;34.46;73.79;97703.16;5063577;28;20044;-82
2023/07/15 06:33:01;;;;;;;23.10;10.63;;;;;;;34.66;71.57;97700.03;5060637;28;20052;-80
2023/07/15 06:35:26;;;;;;;12.25;6.47;;;;;;;34.47;70.15;97704.00;5060401;28;20035;-78
2023/07/15 06:37:52;;;;;;;12.13;6.30;;;;;;;34.26;71.87;97713.81;5061408;28;20044;-79
2023/07/15 06:40:18;;;;;;;16.00;6.28;;;;;;;34.61;70.57;97697.97;5063217;28;20551;-79
2023/07/15 06:42:44;;;;;;;15.40;7.47;;;;;;;35.23;67.92;97712.13;5041103;28;20032;-79
2023/07/15 06:45:10;;;;;;;19.77;7.53;;;;;;;36.12;61.46;97694.63;5058417;28;20051;-79
2023/07/15 06:47:36;;;;;;;12.32;7.57;;;;;;;36.60;57.89;97691.22;5061113;28;20032;-80
2023/07/15 06:50:01;;;;;;;28.33;7.60;;;;;;;37.33;55.63;97692.72;5042817;28;20028;-81
2023/07/15 06:52:27;;;;;;;12.88;7.82;;;;;;;37.62;53.39;97694.22;5059680;28;20021;-79
2023/07/15 06:54:52;;;;;;;14.88;6.65;;;;;;;37.09;53.04;97689.38;5061849;28;20025;-81
2023/07/15 06:57:18;;;;;;;28.88;7.32;;;;;;;36.14;57.56;97698.00;5062671;28;20028;-74
2023/07/15 06:59:44;;;;;;;11.30;6.15;;;;;;;36.04;57.58;97692.22;5060196;28;20052;-81
2023/07/15 07:02:09;;;;;;;12.40;5.75;;;;;;;37.20;53.17;97685.59;5043727;28;20017;-81
2023/07/15 07:04:35;;;;;;;15.02;5.95;;;;;;;37.98;50.66;97678.63;5063610;28;20103;-80
2023/07/15 07:07:00;;;;;;;18.10;7.53;;;;;;;38.22;48.86;97682.75;5060956;28;20104;-81
2023/07/15 07:09:26;;;;;;;11.23;5.95;;;;;;;38.23;49.06;97683.59;5056482;28;20028;-81
2023/07/15 07:11:51;;;;;;;11.57;6.22;;;;;;;36.80;54.16;97685.91;5061752;28;20024;-81
2023/07/15 07:14:17;;;;;;;14.40;6.57;;;;;;;37.42;52.22;97682.78;5058513;28;20027;-81
2023/07/15 07:16:43;;;;;;;9.65;5.70;;;;;;;37.98;51.18;97676.69;5060689;28;20131;-81
2023/07/15 07:19:08;;;;;;;15.48;6.03;;;;;;;38.38;48.98;97681.78;5059610;28;20013;-81
2023/07/15 07:21:34;;;;;;;20.25;6.40;;;;;;;38.64;48.20;97674.38;5062777;28;20055;-81
2023/07/15 07:23:59;;;;;;;12.05;6.40;;;;;;;37.86;49.73;97677.94;5038465;28;20020;-81
2023/07/15 07:26:25;;;;;;;11.85;5.78;;;;;;;37.08;51.88;97686.84;5066414;28;20412;-80
2023/07/15 07:28:50;;;;;;;7.43;4.93;;;;;;;37.05;53.51;97685.41;5058977;28;20024;-80
2023/07/15 07:31:17;;;;;;;16.25;5.10;;;;;;;37.84;50.72;97683.78;5058499;28;20041;-78
2023/07/15 07:33:44;;;;;;;15.70;7.25;;;;;;;38.37;50.00;97684.84;5058070;28;20083;-79
2023/07/15 07:36:10;;;;;;;14.15;5.80;;;;;;;38.61;48.16;97680.50;5060093;28;20472;-79
2023/07/15 07:38:36;;;;;;;9.63;5.70;;;;;;;39.35;47.35;97674.72;5059194;28;20017;-79
2023/07/15 07:41:10;;;;;;;19.75;6.18;;;;;;;39.56;45.16;97666.09;5053255;28;20400;-78
2023/07/15 07:43:36;;;;;;;9.30;5.18;;;;;;;39.40;44.64;97666.38;5041956;28;20032;-82
2023/07/15 07:46:04;;;;;;;8.93;5.00;;;;;;;40.27;43.21;97668.19;5056960;28;20032;-81
2023/07/15 07:48:30;;;;;;;6.82;4.95;;;;;;;41.34;40.53;97663.94;5038032;28;20408;-83
2023/07/15 07:50:56;;;;;;;6.35;5.20;;;;;;;41.13;40.26;97655.59;5042400;28;20038;-82
2023/07/15 07:53:22;;;;;;;7.45;5.15;;;;;;;41.49;39.68;97652.66;5056751;28;20027;-81
2023/07/15 07:55:48;;;;;;;33.03;27.48;;;;;;;41.90;38.96;97650.44;5059787;28;20112;-82
2023/07/15 07:58:14;;;;;;;12.63;8.45;;;;;;;41.86;39.55;97661.41;5061556;28;20099;-82
2023/07/15 08:00:39;;;;;;;11.90;7.15;;;;;;;39.93;42.02;97653.88;5062852;28;20546;-82
2023/07/15 08:03:07;;;;;;;7.95;4.93;;;;;;;40.98;40.53;97655.69;5064608;28;20031;-83
2023/07/15 08:05:32;;;;;;;10.57;4.75;;;;;;;41.04;40.12;97656.53;5061534;28;20514;-80
2023/07/15 08:07:58;;;;;;;21.35;5.90;;;;;;;40.68;41.96;97650.16;5069486;28;20024;-83
2023/07/15 08:10:24;;;;;;;11.43;5.40;;;;;;;40.90;40.92;97652.59;5042811;28;20032;-82
2023/07/15 08:12:49;;;;;;;10.30;4.82;;;;;;;40.80;40.86;97650.66;5033094;28;20025;-82
2023/07/15 08:15:15;;;;;;;6.97;4.80;;;;;;;41.22;40.25;97646.59;5051674;28;20078;-81
2023/07/15 08:17:40;;;;;;;8.07;4.65;;;;;;;42.37;38.66;97658.16;5065987;28;20032;-82
2023/07/15 08:20:08;;;;;;;7.13;4.60;;;;;;;42.91;36.94;97641.84;5073686;28;20036;-82
2023/07/15 08:22:33;;;;;;;8.15;5.05;;;;;;;41.99;38.33;97649.50;5073514;28;20033;-81
2023/07/15 08:24:59;;;;;;;6.88;4.82;;;;;;;41.75;38.73;97651.31;5056315;28;20477;-80
2023/07/15 08:27:24;;;;;;;5.93;4.70;;;;;;;40.29;40.87;97643.47;5063385;28;20082;-80
2023/07/15 08:29:51;;;;;;;10.65;5.20;;;;;;;40.00;41.65;97649.66;5054119;28;20052;-82
2023/07/15 08:32:16;;;;;;;9.13;5.10;;;;;;;40.39;41.62;97649.94;5052955;28;20097;-82
2023/07/15 08:34:59;;;;;;;8.18;4.38;;;;;;;41.03;40.63;97638.84;5060971;28;20108;-81
2023/07/15 08:37:25;;;;;;;10.45;4.85;;;;;;;41.11;40.83;97643.84;5036252;28;20064;-81
2023/07/15 08:39:50;;;;;;;11.90;4.35;;;;;;;42.00;38.65;97645.53;5054230;28;20090;-81
2023/07/15 08:42:19;;;;;;;7.32;4.95;;;;;;;42.10;37.70;97639.84;5052957;28;20028;-82
2023/07/15 08:44:54;;;;;;;8.95;5.55;;;;;;;40.36;41.74;97646.84;5072855;28;20028;-81
2023/07/15 08:47:22;;;;;;;9.32;5.03;;;;;;;41.90;39.04;97651.25;5056175;28;20028;-82
2023/07/15 08:49:48;;;;;;;8.75;4.78;;;;;;;41.37;39.20;97646.53;5072723;28;20028;-82
2023/07/15 08:52:17;;;;;;;5.90;4.63;;;;;;;40.42;40.37;97645.72;5057402;28;20083;-83
2023/07/15 08:54:43;;;;;;;6.45;4.72;;;;;;;40.78;39.96;97641.72;5038525;28;20033;-82
2023/07/15 08:57:09;;;;;;;7.32;5.10;;;;;;;41.74;39.58;97640.38;5055995;28;20490;-82
2023/07/15 08:59:34;;;;;;;9.32;4.90;;;;;;;39.90;42.36;97644.03;5046206;28;20033;-82
2023/07/15 09:02:00;;;;;;;20.35;4.90;;;;;;;39.62;43.24;97650.16;5057466;28;20024;-79
2023/07/15 09:04:25;;;;;;;8.10;5.05;;;;;;;40.14;42.19;97654.72;5055811;28;20543;-78
2023/07/15 09:06:54;;;;;;;7.13;5.00;;;;;;;40.77;39.95;97641.97;5052596;28;20431;-81
2023/07/15 09:09:30;;;;;;;9.07;4.93;;;;;;;40.98;40.38;97644.44;5053087;28;20029;-81
2023/07/15 09:12:00;;;;;;;8.15;4.40;;;;;;;43.07;37.01;97639.72;5066335;28;20036;-80
2023/07/15 09:14:25;;;;;;;17.85;11.43;;;;;;;41.73;39.32;97645.16;5064655;28;20124;-81
2023/07/15 09:16:52;;;;;;;6.95;4.78;;;;;;;41.31;40.91;97651.31;5052249;28;20036;-81
2023/07/15 09:19:19;;;;;;;12.63;5.28;;;;;;;42.60;39.05;97654.59;5052110;28;20029;-82
2023/07/15 09:21:52;;;;;;;12.05;5.32;;;;;;;42.91;38.70;97644.66;5052467;28;20488;-82
2023/07/15 09:24:18;;;;;;;13.07;5.70;;;;;;;41.57;39.79;97646.41;5052687;28;20029;-82
2023/07/15 09:26:54;;;;;;;34.60;25.85;;;;;;;41.49;40.57;97644.22;5059453;28;20115;-82
2023/07/15 09:29:20;;;;;;;9.27;5.10;;;;;;;41.55;40.74;97649.53;5060488;28;20047;-81
2023/07/15 09:31:46;;;;;;;8.35;5.13;;;;;;;41.64;40.58;97644.13;5055309;28;20033;-83
2023/07/15 09:34:12;;;;;;;14.57;5.55;;;;;;;42.34;39.38;97636.25;5067521;28;20029;-84
2023/07/15 09:36:37;;;;;;;13.95;5.55;;;;;;;42.39;38.17;97644.66;5053372;28;20033;-81
2023/07/15 09:39:11;;;;;;;7.30;4.68;;;;;;;42.71;38.02;97633.63;5043741;28;20091;-82
2023/07/15 09:41:37;;;;;;;9.15;4.80;;;;;;;43.29;36.41;97620.22;5051827;28;20527;-81
2023/07/15 09:44:02;;;;;;;15.75;5.80;;;;;;;43.32;36.52;97630.06;5060341;28;20111;-82
2023/07/15 09:46:30;;;;;;;12.50;8.45;;;;;;;43.00;37.33;97627.97;5051840;28;20111;-82
2023/07/15 09:48:56;;;;;;;9.20;4.53;;;;;;;43.74;35.94;97621.56;5051789;28;20112;-82
2023/07/15 09:51:22;;;;;;;13.88;5.25;;;;;;;44.17;34.92;97622.28;5051910;28;20019;-82
2023/07/15 09:53:49;;;;;;;12.73;4.90;;;;;;;43.34;36.90;97622.13;5051570;28;20399;-82
2023/07/15 09:56:24;;;;;;;9.27;4.50;;;;;;;43.26;36.33;97612.38;5040419;28;20044;-82
2023/07/15 09:58:50;;;;;;;8.13;4.20;;;;;;;43.10;37.12;97611.75;5053044;28;20035;-81
2023/07/15 10:01:30;;;;;;;9.45;4.45;;;;;;;44.08;35.30;97616.50;5059858;28;20017;-82
2023/07/15 10:04:24;;;;;;;9.88;4.47;;;;;;;43.97;35.18;97612.16;5071634;28;20380;-82
2023/07/15 10:06:53;;;;;;;8.00;4.80;;;;;;;44.33;35.78;97614.38;5070963;28;20153;-81
2023/07/15 10:09:19;;;;;;;5.53;4.55;;;;;;;44.32;34.71;97592.94;5049497;28;20082;-84
2023/07/15 10:11:46;;;;;;;7.15;4.15;;;;;;;44.29;35.14;97596.38;5060245;28;20502;-81
2023/07/15 10:14:12;;;;;;;13.82;4.47;;;;;;;44.32;35.16;97601.41;5071417;28;20029;-82
2023/07/15 10:16:38;;;;;;;10.15;4.57;;;;;;;43.91;36.07;97595.63;5071405;28;20403;-82
2023/07/15 10:19:04;;;;;;;8.18;4.43;;;;;;;44.97;34.85;97596.47;5034708;28;20035;-82
2023/07/15 10:21:30;;;;;;;6.20;4.38;;;;;;;45.07;34.09;97591.44;5051124;28;20025;-82
2023/07/15 10:24:21;;;;;;;11.65;4.00;;;;;;;43.60;36.06;97603.72;5052688;28;20119;-81
2023/07/15 10:26:48;;;;;;;7.57;4.85;;;;;;;42.87;36.99;97604.16;5067646;28;20078;-80
2023/07/15 10:29:14;;;;;;;9.18;4.70;;;;;;;43.53;36.81;97597.66;5058378;28;20500;-80
2023/07/15 10:31:39;;;;;;;9.65;4.30;;;;;;;45.80;33.81;97610.16;5051180;28;20104;-80
2023/07/15 10:34:05;;;;;;;9.60;4.20;;;;;;;44.74;35.16;97606.81;5070057;28;20035;-80
2023/07/15 10:36:38;;;;;;;10.38;4.50;;;;;;;43.98;36.08;97604.53;5054021;28;20545;-80
2023/07/15 10:39:32;;;;;;;7.72;4.40;;;;;;;44.81;34.97;97604.41;5034522;28;20043;-80
2023/07/15 10:42:06;;;;;;;7.97;4.40;;;;;;;44.67;34.65;97595.91;5048452;28;20072;-80
2023/07/15 10:44:44;;;;;;;14.52;4.60;;;;;;;44.56;35.47;97585.16;5062548;28;20033;-82
2023/07/15 10:47:10;;;;;;;6.85;4.22;;;;;;;44.27;35.20;97584.59;5054608;28;20501;-82
2023/07/15 10:49:36;;;;;;;9.98;4.88;;;;;;;44.72;35.39;97589.34;5064196;28;20031;-84
2023/07/15 10:52:04;;;;;;;6.20;4.30;;;;;;;45.05;34.26;97578.78;5050689;28;20028;-83
2023/07/15 10:54:31;;;;;;;5.15;4.35;;;;;;;44.67;34.13;97575.34;5050822;28;20438;-83
2023/07/15 10:56:57;;;;;;;15.88;5.07;;;;;;;44.58;35.16;97577.22;5068252;28;20040;-83
2023/07/15 10:59:25;;;;;;;8.20;4.72;;;;;;;46.06;33.33;97580.06;5053833;28;20056;-83
2023/07/15 11:01:50;;;;;;;8.52;5.20;;;;;;;45.15;34.47;97579.41;5071576;28;20021;-82
2023/07/15 11:04:19;;;;;;;8.13;4.78;;;;;;;45.18;34.08;97581.59;5070578;28;20392;-83
2023/07/15 11:06:45;;;;;;;5.63;4.72;;;;;;;45.30;34.45;97577.41;5041401;28;20029;-85
2023/07/15 11:09:14;;;;;;;7.38;4.63;;;;;;;45.44;34.42;97583.84;5061312;28;20028;-83
2023/07/15 11:11:40;;;;;;;8.70;4.93;;;;;;;46.03;33.24;97585.50;5053396;28;20502;-84
2023/07/15 11:14:05;;;;;;;7.78;4.20;;;;;;;44.66;34.77;97582.13;5046246;28;20029;-83
2023/07/15 11:16:35;;;;;;;8.57;4.72;;;;;;;42.68;37.68;97578.75;5049853;28;20032;-83
2023/07/15 11:19:01;;;;;;;19.42;5.50;;;;;;;42.20;38.93;97579.00;5039665;28;20020;-82
2023/07/15 11:21:26;;;;;;;7.53;4.90;;;;;;;41.51;40.11;97585.75;5053139;28;20393;-84